sensor_id;sensor_type;location;lat;lon;timestamp;temperature;humidity
5675;DHT22;2860;54.284;10.158;2023-07-20T00:00:35;13.20;99.90
5675;DHT22;2860;54.284;10.158;2023-07-20T00:03:13;13.20;99.90
5675;DHT22;2860;54.284;10.158;2023-07-20T00:05:43;13.20;99.90
5675;DHT22;2860;54.284;10.158;2023-07-20T00:08:09;13.20;99.90
5675;DHT22;2860;54.284;10.158;2023-07-20T00:10:34;13.20;99.90
5675;DHT22;2860;54.284;10.158;2023-07-20T00:13:00;13.20;99.90
5675;DHT22;2860;54.284;10.158;2023-07-20T00:15:25;13.10;99.90
5675;DHT22;2860;54.284;10.158;2023-07-20T00:17:51;13.10;99.90
5675;DHT22;2860;54.284;10.158;2023-07-20T00:20:16;13.00;99.90
5675;DHT22;2860;54.284;10.158;2023-07-20T00:22:43;12.90;99.90
5675;DHT22;2860;54.284;10.158;2023-07-20T00:25:09;12.80;99.90
5675;DHT22;2860;54.284;10.158;2023-07-20T00:27:37;12.70;99.90
5675;DHT22;2860;54.284;10.158;2023-07-20T00:30:03;12.70;99.90
5675;DHT22;2860;54.284;10.158;2023-07-20T00:32:29;12.60;99.90
5675;DHT22;2860;54.284;10.158;2023-07-20T00:34:54;12.50;99.90
5675;DHT22;2860;54.284;10.158;2023-07-20T00:37:20;12.50;99.90
5675;DHT22;2860;54.284;10.158;2023-07-20T00:39:45;12.40;99.90
5675;DHT22;2860;54.284;10.158;2023-07-20T00:42:11;12.40;99.90
5675;DHT22;2860;54.284;10.158;2023-07-20T00:44:36;12.40;99.90
5675;DHT22;2860;54.284;10.158;2023-07-20T00:47:02;12.40;99.90
5675;DHT22;2860;54.284;10.158;2023-07-20T00:49:28;12.40;99.90
5675;DHT22;2860;54.284;10.158;2023-07-20T00:51:53;12.40;99.90
5675;DHT22;2860;54.284;10.158;2023-07-20T00:54:19;12.40;99.90
5675;DHT22;2860;54.284;10.158;2023-07-20T00:56:45;12.30;99.90
5675;DHT22;2860;54.284;10.158;2023-07-20T00:59:11;12.30;99.90
5675;DHT22;2860;54.284;10.158;2023-07-20T01:01:37;12.30;99.90
5675;DHT22;2860;54.284;10.158;2023-07-20T01:04:02;12.20;99.90
5675;DHT22;2860;54.284;10.158;2023-07-20T01:09:19;12.20;99.90
5675;DHT22;2860;54.284;10.158;2023-07-20T01:14:34;12.10;99.90
5675;DHT22;2860;54.284;10.158;2023-07-20T01:17:01;12.00;99.90
5675;DHT22;2860;54.284;10.158;2023-07-20T01:19:26;12.00;99.90
5675;DHT22;2860;54.284;10.158;2023-07-20T01:21:56;11.90;99.90
5675;DHT22;2860;54.284;10.158;2023-07-20T01:24:30;11.90;99.90
5675;DHT22;2860;54.284;10.158;2023-07-20T01:27:26;11.90;99.90
5675;DHT22;2860;54.284;10.158;2023-07-20T01:30:13;11.90;99.90
5675;DHT22;2860;54.284;10.158;2023-07-20T01:32:41;11.80;99.90
5675;DHT22;2860;54.284;10.158;2023-07-20T01:35:08;11.80;99.90
5675;DHT22;2860;54.284;10.158;2023-07-20T01:37:35;11.70;99.90
5675;DHT22;2860;54.284;10.158;2023-07-20T01:40:02;11.70;99.90
5675;DHT22;2860;54.284;10.158;2023-07-20T01:42:29;11.70;99.90
5675;DHT22;2860;54.284;10.158;2023-07-20T01:44:54;11.70;99.90
5675;DHT22;2860;54.284;10.158;2023-07-20T01:47:20;11.70;99.90
5675;DHT22;2860;54.284;10.158;2023-07-20T01:49:45;11.70;99.90
5675;DHT22;2860;54.284;10.158;2023-07-20T01:52:11;11.60;99.90
5675;DHT22;2860;54.284;10.158;2023-07-20T01:54:36;11.60;99.90
5675;DHT22;2860;54.284;10.158;2023-07-20T01:57:03;11.60;99.90
5675;DHT22;2860;54.284;10.158;2023-07-20T01:59:29;11.50;99.90
5675;DHT22;2860;54.284;10.158;2023-07-20T02:01:54;11.50;99.90
5675;DHT22;2860;54.284;10.158;2023-07-20T02:04:21;11.50;99.90
5675;DHT22;2860;54.284;10.158;2023-07-20T02:06:46;11.40;99.90
5675;DHT22;2860;54.284;10.158;2023-07-20T02:09:12;11.40;99.90
5675;DHT22;2860;54.284;10.158;2023-07-20T02:11:37;11.40;99.90
5675;DHT22;2860;54.284;10.158;2023-07-20T02:14:03;11.30;99.90
5675;DHT22;2860;54.284;10.158;2023-07-20T02:16:28;11.30;99.90
5675;DHT22;2860;54.284;10.158;2023-07-20T02:18:54;11.30;99.90
5675;DHT22;2860;54.284;10.158;2023-07-20T02:21:22;11.30;99.90
5675;DHT22;2860;54.284;10.158;2023-07-20T02:23:48;11.20;99.90
5675;DHT22;2860;54.284;10.158;2023-07-20T02:26:13;11.20;99.90
5675;DHT22;2860;54.284;10.158;2023-07-20T02:28:39;11.20;99.90
5675;DHT22;2860;54.284;10.158;2023-07-20T02:31:04;11.20;99.90
5675;DHT22;2860;54.284;10.158;2023-07-20T02:33:30;11.20;99.90
5675;DHT22;2860;54.284;10.158;2023-07-20T02:35:55;11.20;99.90
5675;DHT22;2860;54.284;10.158;2023-07-20T02:38:21;11.20;99.90
5675;DHT22;2860;54.284;10.158;2023-07-20T02:40:46;11.30;99.90
5675;DHT22;2860;54.284;10.158;2023-07-20T02:43:12;11.30;99.90
5675;DHT22;2860;54.284;10.158;2023-07-20T02:45:40;11.40;99.90
5675;DHT22;2860;54.284;10.158;2023-07-20T02:48:08;11.40;99.90
5675;DHT22;2860;54.284;10.158;2023-07-20T02:50:33;11.50;99.90
5675;DHT22;2860;54.284;10.158;2023-07-20T02:53:00;11.60;99.90
5675;DHT22;2860;54.284;10.158;2023-07-20T02:55:25;11.60;99.90
5675;DHT22;2860;54.284;10.158;2023-07-20T02:57:51;11.60;99.90
5675;DHT22;2860;54.284;10.158;2023-07-20T03:00:17;11.70;99.90
5675;DHT22;2860;54.284;10.158;2023-07-20T03:02:45;11.60;99.90
5675;DHT22;2860;54.284;10.158;2023-07-20T03:05:18;11.60;99.90
5675;DHT22;2860;54.284;10.158;2023-07-20T03:07:43;11.50;99.90
5675;DHT22;2860;54.284;10.158;2023-07-20T03:10:10;11.50;99.90
5675;DHT22;2860;54.284;10.158;2023-07-20T03:12:36;11.40;99.90
5675;DHT22;2860;54.284;10.158;2023-07-20T03:15:02;11.40;99.90
5675;DHT22;2860;54.284;10.158;2023-07-20T03:17:28;11.40;99.90
5675;DHT22;2860;54.284;10.158;2023-07-20T03:19:54;11.40;99.90
5675;DHT22;2860;54.284;10.158;2023-07-20T03:22:19;11.40;99.90
5675;DHT22;2860;54.284;10.158;2023-07-20T03:24:46;11.50;99.90
5675;DHT22;2860;54.284;10.158;2023-07-20T03:27:12;11.40;99.90
5675;DHT22;2860;54.284;10.158;2023-07-20T03:29:38;11.40;99.90
5675;DHT22;2860;54.284;10.158;2023-07-20T03:32:03;11.50;99.90
5675;DHT22;2860;54.284;10.158;2023-07-20T03:34:29;11.50;99.90
5675;DHT22;2860;54.284;10.158;2023-07-20T03:36:54;11.50;99.90
5675;DHT22;2860;54.284;10.158;2023-07-20T03:39:21;11.50;99.90
5675;DHT22;2860;54.284;10.158;2023-07-20T03:41:47;11.60;99.90
5675;DHT22;2860;54.284;10.158;2023-07-20T03:44:12;11.70;99.90
5675;DHT22;2860;54.284;10.158;2023-07-20T03:46:38;11.80;99.90
5675;DHT22;2860;54.284;10.158;2023-07-20T03:49:03;11.80;99.90
5675;DHT22;2860;54.284;10.158;2023-07-20T03:51:29;11.90;99.90
5675;DHT22;2860;54.284;10.158;2023-07-20T03:53:54;11.90;99.90
5675;DHT22;2860;54.284;10.158;2023-07-20T03:56:20;12.00;99.90
5675;DHT22;2860;54.284;10.158;2023-07-20T03:58:45;12.00;99.90
5675;DHT22;2860;54.284;10.158;2023-07-20T04:01:11;12.00;99.90
5675;DHT22;2860;54.284;10.158;2023-07-20T04:03:38;12.00;99.90
5675;DHT22;2860;54.284;10.158;2023-07-20T04:06:03;12.10;99.90
5675;DHT22;2860;54.284;10.158;2023-07-20T04:08:29;12.10;99.90
5675;DHT22;2860;54.284;10.158;2023-07-20T04:10:54;12.10;99.90
5675;DHT22;2860;54.284;10.158;2023-07-20T04:13:20;12.20;99.90
5675;DHT22;2860;54.284;10.158;2023-07-20T04:15:46;12.20;99.90
5675;DHT22;2860;54.284;10.158;2023-07-20T04:18:11;12.30;99.90
5675;DHT22;2860;54.284;10.158;2023-07-20T04:20:37;12.30;99.90
5675;DHT22;2860;54.284;10.158;2023-07-20T04:23:02;12.30;99.90
5675;DHT22;2860;54.284;10.158;2023-07-20T04:25:28;12.30;99.90
5675;DHT22;2860;54.284;10.158;2023-07-20T04:27:53;12.30;99.90
5675;DHT22;2860;54.284;10.158;2023-07-20T04:30:20;12.30;99.90
5675;DHT22;2860;54.284;10.158;2023-07-20T04:32:48;12.30;99.90
5675;DHT22;2860;54.284;10.158;2023-07-20T04:38:09;12.30;99.90
5675;DHT22;2860;54.284;10.158;2023-07-20T04:40:35;12.30;99.90
5675;DHT22;2860;54.284;10.158;2023-07-20T04:43:01;12.30;99.90
5675;DHT22;2860;54.284;10.158;2023-07-20T04:45:26;12.30;99.90
5675;DHT22;2860;54.284;10.158;2023-07-20T04:47:51;12.30;99.90
5675;DHT22;2860;54.284;10.158;2023-07-20T04:50:17;12.40;99.90
5675;DHT22;2860;54.284;10.158;2023-07-20T04:52:42;12.40;99.90
5675;DHT22;2860;54.284;10.158;2023-07-20T04:55:08;12.50;99.90
5675;DHT22;2860;54.284;10.158;2023-07-20T04:57:34;12.50;99.90
5675;DHT22;2860;54.284;10.158;2023-07-20T04:59:59;12.50;99.90
5675;DHT22;2860;54.284;10.158;2023-07-20T05:02:25;12.60;99.90
5675;DHT22;2860;54.284;10.158;2023-07-20T05:04:51;12.80;99.90
5675;DHT22;2860;54.284;10.158;2023-07-20T05:07:16;13.50;99.90
5675;DHT22;2860;54.284;10.158;2023-07-20T05:09:42;14.50;99.90
5675;DHT22;2860;54.284;10.158;2023-07-20T05:12:07;15.00;99.90
5675;DHT22;2860;54.284;10.158;2023-07-20T05:14:33;15.40;99.90
5675;DHT22;2860;54.284;10.158;2023-07-20T05:16:58;16.00;99.90
5675;DHT22;2860;54.284;10.158;2023-07-20T05:19:25;16.20;99.90
5675;DHT22;2860;54.284;10.158;2023-07-20T05:21:51;16.60;99.90
5675;DHT22;2860;54.284;10.158;2023-07-20T05:24:16;17.40;99.90
5675;DHT22;2860;54.284;10.158;2023-07-20T05:26:42;18.30;99.90
5675;DHT22;2860;54.284;10.158;2023-07-20T05:29:10;18.70;99.90
5675;DHT22;2860;54.284;10.158;2023-07-20T05:31:44;18.40;99.90
5675;DHT22;2860;54.284;10.158;2023-07-20T05:34:10;17.70;99.90
5675;DHT22;2860;54.284;10.158;2023-07-20T05:36:35;17.60;99.90
5675;DHT22;2860;54.284;10.158;2023-07-20T05:39:02;18.00;99.90
5675;DHT22;2860;54.284;10.158;2023-07-20T05:41:27;18.10;99.90
5675;DHT22;2860;54.284;10.158;2023-07-20T05:43:53;18.30;99.90
5675;DHT22;2860;54.284;10.158;2023-07-20T05:46:18;18.80;99.90
5675;DHT22;2860;54.284;10.158;2023-07-20T05:48:44;19.10;99.90
5675;DHT22;2860;54.284;10.158;2023-07-20T05:51:09;18.90;99.90
5675;DHT22;2860;54.284;10.158;2023-07-20T05:53:35;18.40;99.90
5675;DHT22;2860;54.284;10.158;2023-07-20T05:56:01;17.80;99.90
5675;DHT22;2860;54.284;10.158;2023-07-20T05:58:26;17.30;99.90
5675;DHT22;2860;54.284;10.158;2023-07-20T06:00:53;17.30;99.90
5675;DHT22;2860;54.284;10.158;2023-07-20T06:03:18;17.80;99.90
5675;DHT22;2860;54.284;10.158;2023-07-20T06:05:46;18.30;99.90
5675;DHT22;2860;54.284;10.158;2023-07-20T06:08:12;18.90;99.90
5675;DHT22;2860;54.284;10.158;2023-07-20T06:10:56;19.40;99.90
5675;DHT22;2860;54.284;10.158;2023-07-20T06:13:21;20.00;99.90
5675;DHT22;2860;54.284;10.158;2023-07-20T06:15:47;20.40;99.90
5675;DHT22;2860;54.284;10.158;2023-07-20T06:18:13;20.60;99.90
5675;DHT22;2860;54.284;10.158;2023-07-20T06:20:38;20.60;99.90
5675;DHT22;2860;54.284;10.158;2023-07-20T06:23:04;20.60;99.90
5675;DHT22;2860;54.284;10.158;2023-07-20T06:25:30;20.50;99.90
5675;DHT22;2860;54.284;10.158;2023-07-20T06:27:55;20.50;99.90
5675;DHT22;2860;54.284;10.158;2023-07-20T06:30:21;20.40;99.90
5675;DHT22;2860;54.284;10.158;2023-07-20T06:32:47;20.30;99.90
5675;DHT22;2860;54.284;10.158;2023-07-20T06:35:13;20.00;99.90
5675;DHT22;2860;54.284;10.158;2023-07-20T06:37:39;19.70;99.90
5675;DHT22;2860;54.284;10.158;2023-07-20T06:40:05;19.50;99.90
5675;DHT22;2860;54.284;10.158;2023-07-20T06:42:30;19.20;99.90
5675;DHT22;2860;54.284;10.158;2023-07-20T06:44:57;18.90;99.90
5675;DHT22;2860;54.284;10.158;2023-07-20T06:47:23;18.60;99.90
5675;DHT22;2860;54.284;10.158;2023-07-20T06:49:49;18.30;99.90
5675;DHT22;2860;54.284;10.158;2023-07-20T06:52:15;18.00;99.90
5675;DHT22;2860;54.284;10.158;2023-07-20T06:54:40;18.10;99.90
5675;DHT22;2860;54.284;10.158;2023-07-20T06:57:06;18.00;99.90
5675;DHT22;2860;54.284;10.158;2023-07-20T06:59:31;18.00;99.90
5675;DHT22;2860;54.284;10.158;2023-07-20T07:01:57;18.00;99.90
5675;DHT22;2860;54.284;10.158;2023-07-20T07:04:22;18.10;99.90
5675;DHT22;2860;54.284;10.158;2023-07-20T07:06:48;18.20;99.90
5675;DHT22;2860;54.284;10.158;2023-07-20T07:09:14;18.20;99.90
5675;DHT22;2860;54.284;10.158;2023-07-20T07:11:39;18.30;99.90
5675;DHT22;2860;54.284;10.158;2023-07-20T07:14:05;18.30;99.90
5675;DHT22;2860;54.284;10.158;2023-07-20T07:16:30;18.30;99.90
5675;DHT22;2860;54.284;10.158;2023-07-20T07:18:56;18.30;99.90
5675;DHT22;2860;54.284;10.158;2023-07-20T07:21:21;18.30;99.90
5675;DHT22;2860;54.284;10.158;2023-07-20T07:23:47;18.30;99.90
5675;DHT22;2860;54.284;10.158;2023-07-20T07:26:13;18.30;99.90
5675;DHT22;2860;54.284;10.158;2023-07-20T07:28:38;18.30;99.90
5675;DHT22;2860;54.284;10.158;2023-07-20T07:31:05;18.00;99.90
5675;DHT22;2860;54.284;10.158;2023-07-20T07:33:31;17.60;99.90
5675;DHT22;2860;54.284;10.158;2023-07-20T07:35:57;17.20;99.90
5675;DHT22;2860;54.284;10.158;2023-07-20T07:38:23;16.80;99.90
5675;DHT22;2860;54.284;10.158;2023-07-20T07:40:48;16.50;99.90
5675;DHT22;2860;54.284;10.158;2023-07-20T07:43:14;16.20;99.90
5675;DHT22;2860;54.284;10.158;2023-07-20T07:45:40;16.10;99.90
5675;DHT22;2860;54.284;10.158;2023-07-20T07:48:06;16.30;99.90
5675;DHT22;2860;54.284;10.158;2023-07-20T07:50:33;16.70;99.90
5675;DHT22;2860;54.284;10.158;2023-07-20T07:52:58;17.10;99.90
5675;DHT22;2860;54.284;10.158;2023-07-20T07:55:24;17.40;99.90
5675;DHT22;2860;54.284;10.158;2023-07-20T07:57:52;17.50;99.90
5675;DHT22;2860;54.284;10.158;2023-07-20T08:00:18;17.60;99.90
5675;DHT22;2860;54.284;10.158;2023-07-20T08:02:45;17.90;99.90
5675;DHT22;2860;54.284;10.158;2023-07-20T08:05:11;17.90;99.90
5675;DHT22;2860;54.284;10.158;2023-07-20T08:07:37;17.80;99.90
5675;DHT22;2860;54.284;10.158;2023-07-20T08:10:04;17.70;99.90
5675;DHT22;2860;54.284;10.158;2023-07-20T08:12:30;18.00;99.90
5675;DHT22;2860;54.284;10.158;2023-07-20T08:14:55;18.30;99.90
5675;DHT22;2860;54.284;10.158;2023-07-20T08:17:21;18.70;99.90
5675;DHT22;2860;54.284;10.158;2023-07-20T08:19:46;18.70;99.90
5675;DHT22;2860;54.284;10.158;2023-07-20T08:22:12;19.00;99.90
5675;DHT22;2860;54.284;10.158;2023-07-20T08:24:41;19.00;99.90
5675;DHT22;2860;54.284;10.158;2023-07-20T08:27:07;19.40;99.90
5675;DHT22;2860;54.284;10.158;2023-07-20T08:29:33;19.60;99.90
5675;DHT22;2860;54.284;10.158;2023-07-20T08:31:59;19.10;99.90
5675;DHT22;2860;54.284;10.158;2023-07-20T08:34:24;18.70;99.90
5675;DHT22;2860;54.284;10.158;2023-07-20T08:36:50;18.40;99.90
5675;DHT22;2860;54.284;10.158;2023-07-20T08:39:16;18.40;99.90
5675;DHT22;2860;54.284;10.158;2023-07-20T08:41:43;18.70;99.90
5675;DHT22;2860;54.284;10.158;2023-07-20T08:44:10;18.80;99.90
5675;DHT22;2860;54.284;10.158;2023-07-20T08:46:37;19.20;99.90
5675;DHT22;2860;54.284;10.158;2023-07-20T08:49:03;19.30;99.90
5675;DHT22;2860;54.284;10.158;2023-07-20T08:51:30;19.10;99.90
5675;DHT22;2860;54.284;10.158;2023-07-20T08:53:56;18.70;99.90
5675;DHT22;2860;54.284;10.158;2023-07-20T08:56:23;18.60;99.90
5675;DHT22;2860;54.284;10.158;2023-07-20T08:58:51;18.70;99.90
5675;DHT22;2860;54.284;10.158;2023-07-20T09:01:17;18.90;99.90
5675;DHT22;2860;54.284;10.158;2023-07-20T09:03:45;19.20;99.90
5675;DHT22;2860;54.284;10.158;2023-07-20T09:06:12;19.60;99.90
5675;DHT22;2860;54.284;10.158;2023-07-20T09:08:39;19.70;99.90
5675;DHT22;2860;54.284;10.158;2023-07-20T09:11:04;19.70;99.90
5675;DHT22;2860;54.284;10.158;2023-07-20T09:13:30;19.80;99.90
5675;DHT22;2860;54.284;10.158;2023-07-20T09:15:58;20.00;99.90
5675;DHT22;2860;54.284;10.158;2023-07-20T09:18:31;19.70;99.90
5675;DHT22;2860;54.284;10.158;2023-07-20T09:21:05;19.70;99.90
5675;DHT22;2860;54.284;10.158;2023-07-20T09:25:57;20.10;99.90
5675;DHT22;2860;54.284;10.158;2023-07-20T09:28:23;20.20;99.90
5675;DHT22;2860;54.284;10.158;2023-07-20T09:30:48;20.40;99.90
5675;DHT22;2860;54.284;10.158;2023-07-20T09:33:22;20.50;99.90
5675;DHT22;2860;54.284;10.158;2023-07-20T09:35:48;20.50;99.90
5675;DHT22;2860;54.284;10.158;2023-07-20T09:38:14;20.20;99.90
5675;DHT22;2860;54.284;10.158;2023-07-20T09:40:40;20.10;99.90
5675;DHT22;2860;54.284;10.158;2023-07-20T09:43:09;20.20;99.90
5675;DHT22;2860;54.284;10.158;2023-07-20T09:45:39;19.80;99.90
5675;DHT22;2860;54.284;10.158;2023-07-20T09:48:09;19.20;99.90
5675;DHT22;2860;54.284;10.158;2023-07-20T09:50:50;18.60;99.90
5675;DHT22;2860;54.284;10.158;2023-07-20T09:53:17;18.40;99.90
5675;DHT22;2860;54.284;10.158;2023-07-20T09:55:45;18.30;99.90
5675;DHT22;2860;54.284;10.158;2023-07-20T09:58:11;18.50;99.90
5675;DHT22;2860;54.284;10.158;2023-07-20T10:00:38;19.00;99.90
5675;DHT22;2860;54.284;10.158;2023-07-20T10:03:04;19.30;99.90
5675;DHT22;2860;54.284;10.158;2023-07-20T10:05:35;19.30;99.90
5675;DHT22;2860;54.284;10.158;2023-07-20T10:08:03;19.00;99.90
5675;DHT22;2860;54.284;10.158;2023-07-20T10:10:40;18.80;99.90
5675;DHT22;2860;54.284;10.158;2023-07-20T10:13:18;18.70;99.90
5675;DHT22;2860;54.284;10.158;2023-07-20T10:15:48;18.80;99.90
5675;DHT22;2860;54.284;10.158;2023-07-20T10:18:28;19.00;99.90
5675;DHT22;2860;54.284;10.158;2023-07-20T10:20:55;19.00;99.90
5675;DHT22;2860;54.284;10.158;2023-07-20T10:23:22;19.10;99.90
5675;DHT22;2860;54.284;10.158;2023-07-20T10:25:49;19.20;99.90
5675;DHT22;2860;54.284;10.158;2023-07-20T10:28:15;19.40;99.90
5675;DHT22;2860;54.284;10.158;2023-07-20T10:30:41;19.60;99.90
5675;DHT22;2860;54.284;10.158;2023-07-20T10:33:08;20.10;99.90
5675;DHT22;2860;54.284;10.158;2023-07-20T10:38:42;20.20;99.90
5675;DHT22;2860;54.284;10.158;2023-07-20T10:41:21;19.30;99.90
5675;DHT22;2860;54.284;10.158;2023-07-20T10:43:49;18.80;99.90
5675;DHT22;2860;54.284;10.158;2023-07-20T10:49:09;18.30;99.90
5675;DHT22;2860;54.284;10.158;2023-07-20T10:51:45;18.30;99.90
5675;DHT22;2860;54.284;10.158;2023-07-20T10:56:46;18.70;99.90
5675;DHT22;2860;54.284;10.158;2023-07-20T10:59:20;19.00;99.90
5675;DHT22;2860;54.284;10.158;2023-07-20T11:02:06;19.20;99.90
5675;DHT22;2860;54.284;10.158;2023-07-20T11:04:41;19.40;99.90
5675;DHT22;2860;54.284;10.158;2023-07-20T11:07:07;19.60;99.90
5675;DHT22;2860;54.284;10.158;2023-07-20T11:09:37;19.60;99.90
5675;DHT22;2860;54.284;10.158;2023-07-20T11:14:41;19.40;99.90
5675;DHT22;2860;54.284;10.158;2023-07-20T11:17:14;19.00;99.90
5675;DHT22;2860;54.284;10.158;2023-07-20T11:19:40;18.60;99.90
5675;DHT22;2860;54.284;10.158;2023-07-20T11:22:07;18.40;99.90
5675;DHT22;2860;54.284;10.158;2023-07-20T11:24:33;18.40;99.90
5675;DHT22;2860;54.284;10.158;2023-07-20T11:26:59;18.60;99.90
5675;DHT22;2860;54.284;10.158;2023-07-20T11:29:26;19.10;99.90
5675;DHT22;2860;54.284;10.158;2023-07-20T11:31:52;19.40;99.90
5675;DHT22;2860;54.284;10.158;2023-07-20T11:34:21;19.60;99.90
5675;DHT22;2860;54.284;10.158;2023-07-20T11:36:48;19.90;99.90
5675;DHT22;2860;54.284;10.158;2023-07-20T11:39:17;20.30;99.90
5675;DHT22;2860;54.284;10.158;2023-07-20T11:41:55;20.80;99.90
5675;DHT22;2860;54.284;10.158;2023-07-20T11:44:22;21.10;99.90
5675;DHT22;2860;54.284;10.158;2023-07-20T11:46:59;21.10;99.90
5675;DHT22;2860;54.284;10.158;2023-07-20T11:49:26;21.20;99.90
5675;DHT22;2860;54.284;10.158;2023-07-20T11:51:52;21.20;99.90
5675;DHT22;2860;54.284;10.158;2023-07-20T11:54:18;21.30;99.90
5675;DHT22;2860;54.284;10.158;2023-07-20T11:56:44;21.30;99.90
5675;DHT22;2860;54.284;10.158;2023-07-20T11:59:09;21.50;99.90
5675;DHT22;2860;54.284;10.158;2023-07-20T12:01:34;21.70;99.90
5675;DHT22;2860;54.284;10.158;2023-07-20T12:04:02;21.80;99.90
5675;DHT22;2860;54.284;10.158;2023-07-20T12:06:28;22.00;99.90
5675;DHT22;2860;54.284;10.158;2023-07-20T12:08:58;21.90;99.90
5675;DHT22;2860;54.284;10.158;2023-07-20T12:11:37;22.00;99.90
5675;DHT22;2860;54.284;10.158;2023-07-20T12:14:06;22.10;99.90
5675;DHT22;2860;54.284;10.158;2023-07-20T12:16:32;22.10;99.90
5675;DHT22;2860;54.284;10.158;2023-07-20T12:19:13;21.90;99.90
5675;DHT22;2860;54.284;10.158;2023-07-20T12:21:42;21.70;99.90
5675;DHT22;2860;54.284;10.158;2023-07-20T12:24:09;21.50;99.90
5675;DHT22;2860;54.284;10.158;2023-07-20T12:26:35;21.10;99.90
5675;DHT22;2860;54.284;10.158;2023-07-20T12:29:01;20.80;99.90
5675;DHT22;2860;54.284;10.158;2023-07-20T12:31:27;20.50;99.90
5675;DHT22;2860;54.284;10.158;2023-07-20T12:33:54;20.30;99.90
5675;DHT22;2860;54.284;10.158;2023-07-20T12:36:22;20.10;99.90
5675;DHT22;2860;54.284;10.158;2023-07-20T12:38:48;20.00;99.90
5675;DHT22;2860;54.284;10.158;2023-07-20T12:41:14;20.00;99.90
5675;DHT22;2860;54.284;10.158;2023-07-20T12:43:44;20.10;99.90
5675;DHT22;2860;54.284;10.158;2023-07-20T12:46:11;20.60;99.90
5675;DHT22;2860;54.284;10.158;2023-07-20T12:48:40;21.10;99.90
5675;DHT22;2860;54.284;10.158;2023-07-20T12:51:08;21.40;99.90
5675;DHT22;2860;54.284;10.158;2023-07-20T12:53:34;21.40;99.90
5675;DHT22;2860;54.284;10.158;2023-07-20T12:56:00;21.50;99.90
5675;DHT22;2860;54.284;10.158;2023-07-20T12:58:26;21.30;99.90
5675;DHT22;2860;54.284;10.158;2023-07-20T13:00:55;21.20;99.90
5675;DHT22;2860;54.284;10.158;2023-07-20T13:03:20;21.00;99.90
5675;DHT22;2860;54.284;10.158;2023-07-20T13:05:47;20.60;99.90
5675;DHT22;2860;54.284;10.158;2023-07-20T13:08:13;20.40;99.90
5675;DHT22;2860;54.284;10.158;2023-07-20T13:10:39;20.20;99.90
5675;DHT22;2860;54.284;10.158;2023-07-20T13:13:05;20.00;99.90
5675;DHT22;2860;54.284;10.158;2023-07-20T13:15:32;19.70;99.90
5675;DHT22;2860;54.284;10.158;2023-07-20T13:17:58;19.50;99.90
5675;DHT22;2860;54.284;10.158;2023-07-20T13:20:25;19.30;99.90
5675;DHT22;2860;54.284;10.158;2023-07-20T13:22:50;19.30;99.90
5675;DHT22;2860;54.284;10.158;2023-07-20T13:25:16;19.20;99.90
5675;DHT22;2860;54.284;10.158;2023-07-20T13:27:42;19.20;99.90
5675;DHT22;2860;54.284;10.158;2023-07-20T13:30:08;19.30;99.90
5675;DHT22;2860;54.284;10.158;2023-07-20T13:32:35;19.40;99.90
5675;DHT22;2860;54.284;10.158;2023-07-20T13:35:01;19.50;99.90
5675;DHT22;2860;54.284;10.158;2023-07-20T13:37:27;19.70;99.90
5675;DHT22;2860;54.284;10.158;2023-07-20T13:39:54;19.80;99.90
5675;DHT22;2860;54.284;10.158;2023-07-20T13:42:19;19.70;99.90
5675;DHT22;2860;54.284;10.158;2023-07-20T13:44:47;19.60;99.90
5675;DHT22;2860;54.284;10.158;2023-07-20T13:47:13;19.70;99.90
5675;DHT22;2860;54.284;10.158;2023-07-20T13:49:39;19.90;99.90
5675;DHT22;2860;54.284;10.158;2023-07-20T13:52:04;20.00;99.90
5675;DHT22;2860;54.284;10.158;2023-07-20T13:54:30;20.10;99.90
5675;DHT22;2860;54.284;10.158;2023-07-20T13:56:56;20.20;99.90
5675;DHT22;2860;54.284;10.158;2023-07-20T13:59:22;20.20;99.90
5675;DHT22;2860;54.284;10.158;2023-07-20T14:01:48;20.10;99.90
5675;DHT22;2860;54.284;10.158;2023-07-20T14:04:14;20.30;99.90
5675;DHT22;2860;54.284;10.158;2023-07-20T14:06:40;20.60;99.90
5675;DHT22;2860;54.284;10.158;2023-07-20T14:09:06;20.70;99.90
5675;DHT22;2860;54.284;10.158;2023-07-20T14:11:31;20.80;99.90
5675;DHT22;2860;54.284;10.158;2023-07-20T14:13:57;20.80;99.90
5675;DHT22;2860;54.284;10.158;2023-07-20T14:16:24;20.80;99.90
5675;DHT22;2860;54.284;10.158;2023-07-20T14:18:50;21.00;99.90
5675;DHT22;2860;54.284;10.158;2023-07-20T14:21:17;21.30;99.90
5675;DHT22;2860;54.284;10.158;2023-07-20T14:23:45;21.20;99.90
5675;DHT22;2860;54.284;10.158;2023-07-20T14:26:12;21.20;99.90
5675;DHT22;2860;54.284;10.158;2023-07-20T14:28:37;21.30;99.90
5675;DHT22;2860;54.284;10.158;2023-07-20T14:31:03;21.10;99.90
5675;DHT22;2860;54.284;10.158;2023-07-20T14:33:28;20.60;99.90
5675;DHT22;2860;54.284;10.158;2023-07-20T14:35:57;20.10;99.90
5675;DHT22;2860;54.284;10.158;2023-07-20T14:38:23;19.90;99.90
5675;DHT22;2860;54.284;10.158;2023-07-20T14:40:48;19.70;99.90
5675;DHT22;2860;54.284;10.158;2023-07-20T14:43:14;19.50;99.90
5675;DHT22;2860;54.284;10.158;2023-07-20T14:45:41;19.40;99.90
5675;DHT22;2860;54.284;10.158;2023-07-20T14:48:07;19.60;99.90
5675;DHT22;2860;54.284;10.158;2023-07-20T14:50:32;19.80;99.90
5675;DHT22;2860;54.284;10.158;2023-07-20T14:52:58;20.20;99.90
5675;DHT22;2860;54.284;10.158;2023-07-20T14:55:24;20.70;99.90
5675;DHT22;2860;54.284;10.158;2023-07-20T14:57:50;20.90;99.90
5675;DHT22;2860;54.284;10.158;2023-07-20T15:00:16;20.70;99.90
5675;DHT22;2860;54.284;10.158;2023-07-20T15:02:42;20.40;99.90
5675;DHT22;2860;54.284;10.158;2023-07-20T15:05:10;20.10;99.90
5675;DHT22;2860;54.284;10.158;2023-07-20T15:07:36;19.80;99.90
5675;DHT22;2860;54.284;10.158;2023-07-20T15:10:05;19.80;99.90
5675;DHT22;2860;54.284;10.158;2023-07-20T15:12:31;20.10;99.90
5675;DHT22;2860;54.284;10.158;2023-07-20T15:15:08;20.50;99.90
5675;DHT22;2860;54.284;10.158;2023-07-20T15:17:34;20.70;99.90
5675;DHT22;2860;54.284;10.158;2023-07-20T15:20:04;20.50;99.90
5675;DHT22;2860;54.284;10.158;2023-07-20T15:22:31;20.40;99.90
5675;DHT22;2860;54.284;10.158;2023-07-20T15:24:57;20.20;99.90
5675;DHT22;2860;54.284;10.158;2023-07-20T15:27:22;20.20;99.90
5675;DHT22;2860;54.284;10.158;2023-07-20T15:29:49;20.20;99.90
5675;DHT22;2860;54.284;10.158;2023-07-20T15:32:15;20.20;99.90
5675;DHT22;2860;54.284;10.158;2023-07-20T15:34:42;19.90;99.90
5675;DHT22;2860;54.284;10.158;2023-07-20T15:37:08;19.60;99.90
5675;DHT22;2860;54.284;10.158;2023-07-20T15:39:34;19.30;99.90
5675;DHT22;2860;54.284;10.158;2023-07-20T15:42:00;19.10;99.90
5675;DHT22;2860;54.284;10.158;2023-07-20T15:44:25;19.00;99.90
5675;DHT22;2860;54.284;10.158;2023-07-20T15:46:50;19.10;99.90
5675;DHT22;2860;54.284;10.158;2023-07-20T15:49:16;19.10;99.90
5675;DHT22;2860;54.284;10.158;2023-07-20T15:51:42;19.30;99.90
5675;DHT22;2860;54.284;10.158;2023-07-20T15:54:09;19.30;99.90
5675;DHT22;2860;54.284;10.158;2023-07-20T15:56:36;19.40;99.90
5675;DHT22;2860;54.284;10.158;2023-07-20T15:59:02;19.60;99.90
5675;DHT22;2860;54.284;10.158;2023-07-20T16:01:27;20.00;99.90
5675;DHT22;2860;54.284;10.158;2023-07-20T16:03:54;20.20;99.90